createdAt,value
2022-12-04T00:02:42.023Z,6.29
2022-12-04T00:12:43.508Z,6.45
2022-12-04T00:22:44.942Z,6.44
2022-12-04T00:32:46.419Z,6.36
2022-12-04T00:42:47.868Z,6.09
2022-12-04T00:52:49.377Z,6.06
2022-12-04T01:02:50.851Z,5.93
2022-12-04T01:12:55.485Z,6.02
2022-12-04T01:22:56.990Z,6.02
2022-12-04T01:32:58.466Z,6.19
2022-12-04T01:43:00.101Z,6.04
2022-12-04T01:53:01.849Z,6.51
2022-12-04T02:03:03.386Z,6.80
2022-12-04T02:13:14.163Z,6.69
2022-12-04T02:23:25.751Z,6.53
2022-12-04T02:33:39.119Z,6.75
2022-12-04T02:43:47.762Z,6.66
2022-12-04T02:53:57.179Z,6.42
2022-12-04T03:04:20.668Z,6.40
2022-12-04T03:14:33.768Z,6.18
2022-12-04T03:24:40.975Z,6.34
2022-12-04T03:35:03.558Z,6.18
2022-12-04T03:45:22.210Z,6.16
2022-12-04T03:55:29.539Z,6.35
2022-12-04T04:05:34.139Z,6.09
2022-12-04T04:15:57.762Z,6.50
2022-12-04T04:26:02.644Z,6.25
2022-12-04T04:36:14.396Z,6.24
2022-12-04T04:46:28.674Z,6.21
2022-12-04T04:56:31.425Z,6.18
2022-12-04T05:06:33.594Z,5.93
2022-12-04T05:16:35.509Z,6.13
2022-12-04T05:26:36.989Z,6.24
2022-12-04T05:36:38.447Z,6.07
2022-12-04T05:46:39.962Z,6.44
2022-12-04T05:56:41.464Z,6.54
2022-12-04T06:06:43.007Z,6.76
2022-12-04T06:16:46.510Z,6.90
2022-12-04T06:27:25.149Z,6.99
2022-12-04T06:37:10.614Z,6.63
2022-12-04T06:47:12.207Z,6.39
2022-12-04T06:57:13.753Z,6.13
2022-12-04T07:07:15.224Z,6.96
2022-12-04T07:17:16.742Z,6.69
2022-12-04T07:27:18.208Z,6.30
2022-12-04T07:37:19.668Z,6.93
2022-12-04T07:47:21.210Z,7.00
2022-12-04T07:57:22.879Z,7.27
2022-12-04T08:07:24.342Z,7.62
2022-12-04T08:17:25.998Z,7.20
2022-12-04T08:27:27.489Z,7.26
2022-12-04T08:37:29.001Z,7.19
2022-12-04T08:47:30.459Z,7.39
2022-12-04T08:57:31.896Z,7.92
2022-12-04T09:07:33.421Z,8.20
2022-12-04T09:17:36.303Z,8.08
2022-12-04T09:27:38.917Z,8.21
2022-12-04T09:37:40.421Z,8.46
2022-12-04T09:47:48.523Z,8.88
2022-12-04T09:58:00.034Z,9.07
2022-12-04T10:08:16.112Z,8.29
2022-12-04T10:18:45.661Z,8.87
2022-12-04T10:28:55.542Z,9.19
2022-12-04T10:39:01.155Z,9.46
2022-12-04T10:49:10.924Z,9.22
2022-12-04T10:59:15.963Z,9.53
2022-12-04T11:09:24.151Z,9.78
2022-12-04T11:19:28.450Z,9.45
2022-12-04T11:29:44.456Z,9.69
2022-12-04T11:39:46.636Z,10.30
2022-12-04T11:50:01.596Z,10.82
2022-12-04T12:00:16.382Z,11.28
2022-12-04T12:10:26.841Z,11.46
2022-12-04T12:20:38.000Z,11.58
2022-12-04T12:31:25.978Z,11.61
2022-12-04T12:41:35.966Z,11.77
2022-12-04T12:51:41.418Z,11.74
2022-12-04T13:02:00.866Z,11.35
2022-12-04T13:12:09.417Z,11.17
2022-12-04T13:22:16.879Z,11.13
2022-12-04T13:32:59.682Z,11.14
2022-12-04T13:43:33.310Z,10.91
2022-12-04T13:53:37.872Z,11.06
2022-12-04T14:03:50.378Z,11.04
2022-12-04T14:14:01.198Z,11.04
2022-12-04T14:24:25.312Z,11.01
2022-12-04T14:34:29.731Z,10.98
2022-12-04T14:44:31.901Z,10.95
2022-12-04T14:54:45.062Z,10.42
2022-12-04T15:04:49.093Z,10.01
2022-12-04T15:14:50.873Z,9.98
2022-12-04T15:24:53.399Z,10.08
2022-12-04T15:35:00.947Z,10.18
2022-12-04T15:45:25.404Z,10.19
2022-12-04T15:55:30.557Z,10.19
2022-12-04T16:05:36.424Z,10.03
2022-12-04T16:15:43.719Z,9.74
2022-12-04T16:25:45.304Z,9.20
2022-12-04T16:35:46.781Z,9.18
2022-12-04T16:45:51.933Z,9.27
2022-12-04T16:55:53.475Z,9.29
2022-12-04T17:05:55.917Z,9.09
2022-12-04T17:15:58.597Z,9.31
2022-12-04T17:26:02.184Z,9.43
2022-12-04T17:36:08.946Z,9.41
2022-12-04T17:46:13.656Z,9.39
2022-12-04T17:56:18.585Z,9.37
2022-12-04T18:06:29.098Z,9.14
2022-12-04T18:16:32.039Z,9.24
2022-12-04T18:26:36.262Z,9.15
2022-12-04T18:36:39.259Z,9.10
2022-12-04T18:46:41.659Z,9.10
2022-12-04T18:56:44.164Z,8.99
2022-12-04T19:06:48.343Z,8.89
2022-12-04T19:16:51.368Z,9.14
2022-12-04T19:26:53.930Z,9.03
2022-12-04T19:36:55.378Z,8.84
2022-12-04T19:46:56.855Z,8.70
2022-12-04T19:56:58.353Z,8.49
2022-12-04T20:06:59.810Z,8.50
2022-12-04T20:17:04.086Z,8.28
2022-12-04T20:27:05.729Z,8.42
2022-12-04T20:37:07.220Z,8.51
2022-12-04T20:47:08.739Z,8.28
2022-12-04T20:57:10.432Z,8.42
2022-12-04T21:07:11.923Z,8.15
2022-12-04T21:17:18.405Z,8.12
2022-12-04T21:27:21.385Z,8.21
2022-12-04T21:37:23.037Z,8.19
2022-12-04T21:47:24.717Z,8.10
2022-12-04T21:57:27.671Z,7.99
2022-12-04T22:07:29.209Z,7.91
2022-12-04T22:17:30.925Z,8.07
2022-12-04T22:27:32.387Z,7.96
2022-12-04T22:37:34.090Z,7.97
2022-12-04T22:47:35.544Z,8.06
2022-12-04T22:57:37.231Z,8.00
2022-12-04T23:07:39.263Z,8.12
2022-12-04T23:17:40.838Z,8.06
2022-12-04T23:27:42.289Z,8.11
2022-12-04T23:37:43.901Z,8.17
2022-12-04T23:47:45.434Z,8.23
2022-12-04T23:57:47.064Z,8.26
